sensor_id;sensor_type;location;lat;lon;timestamp;P1;durP1;ratioP1;P2;durP2;ratioP2
39738;SDS011;25422;48.286;8.484;2022-11-15T00:00:30;13.00;;;6.63;;
39738;SDS011;25422;48.286;8.484;2022-11-15T00:03:15;8.70;;;6.28;;
39738;SDS011;25422;48.286;8.484;2022-11-15T00:06:03;11.25;;;6.65;;
39738;SDS011;25422;48.286;8.484;2022-11-15T00:08:47;12.98;;;6.30;;
39738;SDS011;25422;48.286;8.484;2022-11-15T00:11:31;10.15;;;6.95;;
39738;SDS011;25422;48.286;8.484;2022-11-15T00:14:15;10.48;;;7.53;;
39738;SDS011;25422;48.286;8.484;2022-11-15T00:16:59;8.45;;;6.40;;
39738;SDS011;25422;48.286;8.484;2022-11-15T00:19:43;11.07;;;7.05;;
39738;SDS011;25422;48.286;8.484;2022-11-15T00:22:33;9.43;;;6.50;;
39738;SDS011;25422;48.286;8.484;2022-11-15T00:25:17;9.48;;;6.78;;
39738;SDS011;25422;48.286;8.484;2022-11-15T00:28:01;9.73;;;6.82;;
39738;SDS011;25422;48.286;8.484;2022-11-15T00:30:46;8.85;;;6.43;;
39738;SDS011;25422;48.286;8.484;2022-11-15T00:33:30;9.93;;;6.72;;
39738;SDS011;25422;48.286;8.484;2022-11-15T00:36:14;10.63;;;6.57;;
39738;SDS011;25422;48.286;8.484;2022-11-15T00:38:58;10.93;;;6.55;;
39738;SDS011;25422;48.286;8.484;2022-11-15T00:41:42;9.23;;;6.43;;
39738;SDS011;25422;48.286;8.484;2022-11-15T00:44:26;9.93;;;6.88;;
39738;SDS011;25422;48.286;8.484;2022-11-15T00:47:10;8.98;;;6.80;;
39738;SDS011;25422;48.286;8.484;2022-11-15T00:49:54;10.02;;;6.10;;
39738;SDS011;25422;48.286;8.484;2022-11-15T00:52:38;8.05;;;5.97;;
39738;SDS011;25422;48.286;8.484;2022-11-15T00:55:22;9.00;;;6.13;;
39738;SDS011;25422;48.286;8.484;2022-11-15T00:58:06;8.50;;;6.25;;
39738;SDS011;25422;48.286;8.484;2022-11-15T01:00:50;9.25;;;6.65;;
39738;SDS011;25422;48.286;8.484;2022-11-15T01:03:34;10.23;;;6.40;;
39738;SDS011;25422;48.286;8.484;2022-11-15T01:06:19;11.52;;;5.90;;
39738;SDS011;25422;48.286;8.484;2022-11-15T01:09:03;7.22;;;5.65;;
39738;SDS011;25422;48.286;8.484;2022-11-15T01:11:47;9.85;;;6.00;;
39738;SDS011;25422;48.286;8.484;2022-11-15T01:14:31;8.15;;;5.85;;
39738;SDS011;25422;48.286;8.484;2022-11-15T01:17:15;7.10;;;5.85;;
39738;SDS011;25422;48.286;8.484;2022-11-15T01:19:58;7.28;;;5.30;;
39738;SDS011;25422;48.286;8.484;2022-11-15T01:22:43;8.38;;;6.00;;
39738;SDS011;25422;48.286;8.484;2022-11-15T01:25:26;9.13;;;5.53;;
39738;SDS011;25422;48.286;8.484;2022-11-15T01:28:10;9.50;;;5.28;;
39738;SDS011;25422;48.286;8.484;2022-11-15T01:30:57;9.90;;;6.07;;
39738;SDS011;25422;48.286;8.484;2022-11-15T01:33:42;7.50;;;5.60;;
39738;SDS011;25422;48.286;8.484;2022-11-15T01:36:26;8.57;;;5.45;;
39738;SDS011;25422;48.286;8.484;2022-11-15T01:39:10;6.28;;;5.50;;
39738;SDS011;25422;48.286;8.484;2022-11-15T01:41:54;8.88;;;5.32;;
39738;SDS011;25422;48.286;8.484;2022-11-15T01:44:43;9.65;;;5.95;;
39738;SDS011;25422;48.286;8.484;2022-11-15T01:47:33;8.73;;;5.63;;
39738;SDS011;25422;48.286;8.484;2022-11-15T01:50:22;10.90;;;5.82;;
39738;SDS011;25422;48.286;8.484;2022-11-15T01:53:11;7.43;;;5.97;;
39738;SDS011;25422;48.286;8.484;2022-11-15T01:55:56;6.65;;;5.18;;
39738;SDS011;25422;48.286;8.484;2022-11-15T01:58:40;8.40;;;4.97;;
39738;SDS011;25422;48.286;8.484;2022-11-15T02:01:25;10.20;;;4.88;;
39738;SDS011;25422;48.286;8.484;2022-11-15T02:04:13;6.35;;;5.20;;
39738;SDS011;25422;48.286;8.484;2022-11-15T02:07:01;6.63;;;5.32;;
39738;SDS011;25422;48.286;8.484;2022-11-15T02:09:48;6.90;;;5.45;;
39738;SDS011;25422;48.286;8.484;2022-11-15T02:12:33;9.25;;;4.72;;
39738;SDS011;25422;48.286;8.484;2022-11-15T02:15:17;6.80;;;4.63;;
39738;SDS011;25422;48.286;8.484;2022-11-15T02:18:11;8.68;;;4.72;;
39738;SDS011;25422;48.286;8.484;2022-11-15T02:21:18;5.30;;;4.63;;
39738;SDS011;25422;48.286;8.484;2022-11-15T02:36:26;8.13;;;4.25;;
39738;SDS011;25422;48.286;8.484;2022-11-15T02:39:30;5.18;;;4.05;;
39738;SDS011;25422;48.286;8.484;2022-11-15T02:42:26;5.53;;;4.28;;
39738;SDS011;25422;48.286;8.484;2022-11-15T02:45:32;8.60;;;4.68;;
39738;SDS011;25422;48.286;8.484;2022-11-15T02:48:23;7.30;;;3.97;;
39738;SDS011;25422;48.286;8.484;2022-11-15T02:51:09;7.95;;;4.32;;
39738;SDS011;25422;48.286;8.484;2022-11-15T02:53:54;4.28;;;3.65;;
39738;SDS011;25422;48.286;8.484;2022-11-15T02:56:38;5.65;;;4.20;;
39738;SDS011;25422;48.286;8.484;2022-11-15T03:05:57;5.55;;;4.05;;
39738;SDS011;25422;48.286;8.484;2022-11-15T03:09:07;9.77;;;4.47;;
39738;SDS011;25422;48.286;8.484;2022-11-15T03:11:55;5.40;;;3.97;;
39738;SDS011;25422;48.286;8.484;2022-11-15T03:14:51;5.25;;;3.40;;
39738;SDS011;25422;48.286;8.484;2022-11-15T03:17:41;6.68;;;4.00;;
39738;SDS011;25422;48.286;8.484;2022-11-15T03:20:31;7.30;;;4.40;;
39738;SDS011;25422;48.286;8.484;2022-11-15T03:23:17;5.95;;;4.05;;
39738;SDS011;25422;48.286;8.484;2022-11-15T03:26:01;6.07;;;4.25;;
39738;SDS011;25422;48.286;8.484;2022-11-15T03:28:47;6.15;;;3.72;;
39738;SDS011;25422;48.286;8.484;2022-11-15T03:31:37;5.32;;;3.38;;
39738;SDS011;25422;48.286;8.484;2022-11-15T03:34:32;6.13;;;3.90;;
39738;SDS011;25422;48.286;8.484;2022-11-15T03:37:19;5.22;;;4.00;;
39738;SDS011;25422;48.286;8.484;2022-11-15T03:40:05;5.65;;;3.88;;
39738;SDS011;25422;48.286;8.484;2022-11-15T03:45:48;4.82;;;4.10;;
39738;SDS011;25422;48.286;8.484;2022-11-15T03:48:40;6.70;;;4.80;;
39738;SDS011;25422;48.286;8.484;2022-11-15T03:51:29;5.60;;;3.95;;
39738;SDS011;25422;48.286;8.484;2022-11-15T03:54:14;7.03;;;3.80;;
39738;SDS011;25422;48.286;8.484;2022-11-15T03:56:57;4.65;;;3.75;;
39738;SDS011;25422;48.286;8.484;2022-11-15T03:59:41;7.82;;;4.40;;
39738;SDS011;25422;48.286;8.484;2022-11-15T04:02:25;7.57;;;3.85;;
39738;SDS011;25422;48.286;8.484;2022-11-15T04:05:09;4.38;;;3.63;;
39738;SDS011;25422;48.286;8.484;2022-11-15T04:07:53;5.35;;;3.15;;
39738;SDS011;25422;48.286;8.484;2022-11-15T04:10:37;7.22;;;3.30;;
39738;SDS011;25422;48.286;8.484;2022-11-15T04:13:21;4.35;;;3.22;;
39738;SDS011;25422;48.286;8.484;2022-11-15T04:16:05;4.82;;;3.28;;
39738;SDS011;25422;48.286;8.484;2022-11-15T04:18:49;4.65;;;3.13;;
39738;SDS011;25422;48.286;8.484;2022-11-15T04:21:54;3.85;;;3.28;;
39738;SDS011;25422;48.286;8.484;2022-11-15T04:24:57;4.80;;;3.03;;
39738;SDS011;25422;48.286;8.484;2022-11-15T04:27:40;6.38;;;3.42;;
39738;SDS011;25422;48.286;8.484;2022-11-15T04:30:24;5.55;;;3.42;;
39738;SDS011;25422;48.286;8.484;2022-11-15T04:33:09;5.15;;;3.40;;
39738;SDS011;25422;48.286;8.484;2022-11-15T04:35:52;5.00;;;3.30;;
39738;SDS011;25422;48.286;8.484;2022-11-15T04:39:06;5.82;;;3.60;;
39738;SDS011;25422;48.286;8.484;2022-11-15T04:41:50;7.65;;;4.82;;
39738;SDS011;25422;48.286;8.484;2022-11-15T04:44:34;14.63;;;8.30;;
39738;SDS011;25422;48.286;8.484;2022-11-15T04:47:18;7.07;;;3.72;;
39738;SDS011;25422;48.286;8.484;2022-11-15T04:50:03;5.38;;;3.15;;
39738;SDS011;25422;48.286;8.484;2022-11-15T04:52:51;6.20;;;3.53;;
39738;SDS011;25422;48.286;8.484;2022-11-15T04:55:37;5.43;;;3.53;;
39738;SDS011;25422;48.286;8.484;2022-11-15T04:58:21;4.45;;;3.28;;
39738;SDS011;25422;48.286;8.484;2022-11-15T05:01:08;6.18;;;3.95;;
39738;SDS011;25422;48.286;8.484;2022-11-15T05:03:53;6.47;;;4.25;;
39738;SDS011;25422;48.286;8.484;2022-11-15T05:06:55;4.60;;;3.63;;
39738;SDS011;25422;48.286;8.484;2022-11-15T05:09:39;4.97;;;3.25;;
39738;SDS011;25422;48.286;8.484;2022-11-15T05:12:27;4.30;;;3.65;;
39738;SDS011;25422;48.286;8.484;2022-11-15T05:15:11;5.43;;;3.85;;
39738;SDS011;25422;48.286;8.484;2022-11-15T05:17:58;5.38;;;4.18;;
39738;SDS011;25422;48.286;8.484;2022-11-15T05:20:44;8.20;;;5.18;;
39738;SDS011;25422;48.286;8.484;2022-11-15T05:23:28;5.95;;;4.47;;
39738;SDS011;25422;48.286;8.484;2022-11-15T05:26:12;8.20;;;4.40;;
39738;SDS011;25422;48.286;8.484;2022-11-15T05:28:58;4.63;;;3.90;;
39738;SDS011;25422;48.286;8.484;2022-11-15T05:31:43;6.95;;;4.38;;
39738;SDS011;25422;48.286;8.484;2022-11-15T05:34:27;6.15;;;4.68;;
39738;SDS011;25422;48.286;8.484;2022-11-15T05:37:11;11.30;;;4.65;;
39738;SDS011;25422;48.286;8.484;2022-11-15T05:39:55;7.05;;;4.78;;
39738;SDS011;25422;48.286;8.484;2022-11-15T05:42:38;8.65;;;4.50;;
39738;SDS011;25422;48.286;8.484;2022-11-15T05:45:22;6.35;;;4.30;;
39738;SDS011;25422;48.286;8.484;2022-11-15T05:48:07;8.20;;;4.90;;
39738;SDS011;25422;48.286;8.484;2022-11-15T05:50:53;9.30;;;5.45;;
39738;SDS011;25422;48.286;8.484;2022-11-15T05:53:37;7.47;;;5.35;;
39738;SDS011;25422;48.286;8.484;2022-11-15T05:56:21;8.75;;;5.50;;
39738;SDS011;25422;48.286;8.484;2022-11-15T05:59:06;9.93;;;5.68;;
39738;SDS011;25422;48.286;8.484;2022-11-15T06:01:51;12.32;;;5.82;;
39738;SDS011;25422;48.286;8.484;2022-11-15T06:04:35;7.03;;;5.82;;
39738;SDS011;25422;48.286;8.484;2022-11-15T06:07:20;6.55;;;5.45;;
39738;SDS011;25422;48.286;8.484;2022-11-15T06:10:04;8.05;;;5.53;;
39738;SDS011;25422;48.286;8.484;2022-11-15T06:12:55;7.80;;;5.53;;
39738;SDS011;25422;48.286;8.484;2022-11-15T06:15:42;9.55;;;5.97;;
39738;SDS011;25422;48.286;8.484;2022-11-15T06:18:26;7.30;;;5.40;;
39738;SDS011;25422;48.286;8.484;2022-11-15T06:21:10;8.93;;;5.68;;
39738;SDS011;25422;48.286;8.484;2022-11-15T06:23:54;7.88;;;5.22;;
39738;SDS011;25422;48.286;8.484;2022-11-15T06:26:38;9.38;;;5.53;;
39738;SDS011;25422;48.286;8.484;2022-11-15T06:29:22;8.15;;;5.50;;
39738;SDS011;25422;48.286;8.484;2022-11-15T06:32:07;7.50;;;5.45;;
39738;SDS011;25422;48.286;8.484;2022-11-15T06:34:51;6.80;;;5.75;;
39738;SDS011;25422;48.286;8.484;2022-11-15T06:37:35;8.05;;;5.18;;
39738;SDS011;25422;48.286;8.484;2022-11-15T06:40:19;6.88;;;5.05;;
39738;SDS011;25422;48.286;8.484;2022-11-15T06:43:03;7.40;;;5.50;;
39738;SDS011;25422;48.286;8.484;2022-11-15T06:45:48;8.40;;;5.50;;
39738;SDS011;25422;48.286;8.484;2022-11-15T06:48:32;6.65;;;5.32;;
39738;SDS011;25422;48.286;8.484;2022-11-15T06:51:17;5.75;;;5.05;;
39738;SDS011;25422;48.286;8.484;2022-11-15T06:54:01;6.47;;;4.60;;
39738;SDS011;25422;48.286;8.484;2022-11-15T06:56:46;6.03;;;4.80;;
39738;SDS011;25422;48.286;8.484;2022-11-15T06:59:30;7.25;;;4.63;;
39738;SDS011;25422;48.286;8.484;2022-11-15T07:02:15;6.32;;;5.00;;
39738;SDS011;25422;48.286;8.484;2022-11-15T07:04:59;6.38;;;4.57;;
39738;SDS011;25422;48.286;8.484;2022-11-15T07:07:43;6.53;;;5.20;;
39738;SDS011;25422;48.286;8.484;2022-11-15T07:10:34;7.68;;;5.00;;
39738;SDS011;25422;48.286;8.484;2022-11-15T07:13:18;9.50;;;5.47;;
39738;SDS011;25422;48.286;8.484;2022-11-15T07:16:03;9.90;;;6.28;;
39738;SDS011;25422;48.286;8.484;2022-11-15T07:21:36;8.88;;;5.75;;
39738;SDS011;25422;48.286;8.484;2022-11-15T07:24:20;7.80;;;6.03;;
39738;SDS011;25422;48.286;8.484;2022-11-15T07:27:04;11.20;;;5.95;;
39738;SDS011;25422;48.286;8.484;2022-11-15T07:29:48;8.45;;;5.70;;
39738;SDS011;25422;48.286;8.484;2022-11-15T07:32:32;10.63;;;5.72;;
39738;SDS011;25422;48.286;8.484;2022-11-15T07:35:16;8.13;;;5.32;;
39738;SDS011;25422;48.286;8.484;2022-11-15T07:38:00;7.22;;;4.82;;
39738;SDS011;25422;48.286;8.484;2022-11-15T07:40:46;7.25;;;5.15;;
39738;SDS011;25422;48.286;8.484;2022-11-15T07:43:30;8.10;;;5.65;;
39738;SDS011;25422;48.286;8.484;2022-11-15T07:46:17;8.73;;;5.50;;
39738;SDS011;25422;48.286;8.484;2022-11-15T07:49:01;9.27;;;5.50;;
39738;SDS011;25422;48.286;8.484;2022-11-15T07:51:45;7.43;;;5.60;;
39738;SDS011;25422;48.286;8.484;2022-11-15T07:54:29;12.18;;;6.13;;
39738;SDS011;25422;48.286;8.484;2022-11-15T07:57:13;9.52;;;5.75;;
39738;SDS011;25422;48.286;8.484;2022-11-15T07:59:57;8.10;;;5.50;;
39738;SDS011;25422;48.286;8.484;2022-11-15T08:02:41;7.18;;;5.60;;
39738;SDS011;25422;48.286;8.484;2022-11-15T08:05:25;6.22;;;5.13;;
39738;SDS011;25422;48.286;8.484;2022-11-15T08:08:10;8.65;;;5.82;;
39738;SDS011;25422;48.286;8.484;2022-11-15T08:10:54;6.78;;;5.32;;
39738;SDS011;25422;48.286;8.484;2022-11-15T08:13:40;7.47;;;5.78;;
39738;SDS011;25422;48.286;8.484;2022-11-15T08:16:24;10.38;;;5.88;;
39738;SDS011;25422;48.286;8.484;2022-11-15T08:19:08;10.93;;;5.13;;
39738;SDS011;25422;48.286;8.484;2022-11-15T08:21:52;7.13;;;5.32;;
39738;SDS011;25422;48.286;8.484;2022-11-15T08:24:36;9.43;;;5.32;;
39738;SDS011;25422;48.286;8.484;2022-11-15T08:27:20;7.18;;;5.50;;
39738;SDS011;25422;48.286;8.484;2022-11-15T08:30:04;7.78;;;5.53;;
39738;SDS011;25422;48.286;8.484;2022-11-15T08:32:49;9.18;;;5.80;;
39738;SDS011;25422;48.286;8.484;2022-11-15T08:35:34;9.57;;;6.57;;
39738;SDS011;25422;48.286;8.484;2022-11-15T08:38:18;9.70;;;6.22;;
39738;SDS011;25422;48.286;8.484;2022-11-15T08:41:03;9.73;;;6.25;;
39738;SDS011;25422;48.286;8.484;2022-11-15T08:43:48;8.45;;;5.97;;
39738;SDS011;25422;48.286;8.484;2022-11-15T08:46:31;7.57;;;5.80;;
39738;SDS011;25422;48.286;8.484;2022-11-15T08:49:16;8.57;;;6.40;;
39738;SDS011;25422;48.286;8.484;2022-11-15T08:51:59;12.02;;;6.05;;
39738;SDS011;25422;48.286;8.484;2022-11-15T08:54:43;10.13;;;6.30;;
39738;SDS011;25422;48.286;8.484;2022-11-15T08:57:28;8.40;;;6.63;;
39738;SDS011;25422;48.286;8.484;2022-11-15T09:00:16;10.30;;;6.55;;
39738;SDS011;25422;48.286;8.484;2022-11-15T09:03:03;9.55;;;6.15;;
39738;SDS011;25422;48.286;8.484;2022-11-15T09:05:48;7.00;;;5.95;;
39738;SDS011;25422;48.286;8.484;2022-11-15T09:08:38;8.43;;;6.30;;
39738;SDS011;25422;48.286;8.484;2022-11-15T09:11:23;8.65;;;6.65;;
39738;SDS011;25422;48.286;8.484;2022-11-15T09:14:07;8.40;;;6.40;;
39738;SDS011;25422;48.286;8.484;2022-11-15T09:16:50;10.95;;;6.65;;
39738;SDS011;25422;48.286;8.484;2022-11-15T09:19:35;9.75;;;6.43;;
39738;SDS011;25422;48.286;8.484;2022-11-15T09:22:19;7.53;;;6.25;;
39738;SDS011;25422;48.286;8.484;2022-11-15T09:25:03;9.63;;;6.50;;
39738;SDS011;25422;48.286;8.484;2022-11-15T09:27:47;9.57;;;6.75;;
39738;SDS011;25422;48.286;8.484;2022-11-15T09:30:31;12.35;;;6.82;;
39738;SDS011;25422;48.286;8.484;2022-11-15T09:33:15;10.63;;;6.70;;
39738;SDS011;25422;48.286;8.484;2022-11-15T09:36:03;10.68;;;6.75;;
39738;SDS011;25422;48.286;8.484;2022-11-15T09:48:08;9.50;;;6.50;;
39738;SDS011;25422;48.286;8.484;2022-11-15T09:50:59;10.07;;;5.47;;
39738;SDS011;25422;48.286;8.484;2022-11-15T09:53:26;11.00;;;7.07;;
39738;SDS011;25422;48.286;8.484;2022-11-15T09:56:01;8.15;;;6.20;;
39738;SDS011;25422;48.286;8.484;2022-11-15T10:01:08;8.88;;;6.32;;
39738;SDS011;25422;48.286;8.484;2022-11-15T10:03:42;8.43;;;6.60;;
39738;SDS011;25422;48.286;8.484;2022-11-15T10:06:15;12.63;;;6.85;;
39738;SDS011;25422;48.286;8.484;2022-11-15T10:11:31;8.25;;;5.95;;
39738;SDS011;25422;48.286;8.484;2022-11-15T10:14:01;7.25;;;6.10;;
39738;SDS011;25422;48.286;8.484;2022-11-15T10:19:09;8.32;;;6.43;;
39738;SDS011;25422;48.286;8.484;2022-11-15T10:24:20;13.80;;;7.32;;
39738;SDS011;25422;48.286;8.484;2022-11-15T10:26:51;9.93;;;6.68;;
39738;SDS011;25422;48.286;8.484;2022-11-15T10:29:19;8.32;;;6.45;;
39738;SDS011;25422;48.286;8.484;2022-11-15T10:31:46;9.48;;;6.70;;
39738;SDS011;25422;48.286;8.484;2022-11-15T10:34:15;9.38;;;6.60;;
39738;SDS011;25422;48.286;8.484;2022-11-15T10:36:44;10.65;;;7.40;;
39738;SDS011;25422;48.286;8.484;2022-11-15T10:39:18;11.15;;;6.93;;
39738;SDS011;25422;48.286;8.484;2022-11-15T10:41:44;11.80;;;7.90;;
39738;SDS011;25422;48.286;8.484;2022-11-15T10:44:12;12.23;;;7.82;;
39738;SDS011;25422;48.286;8.484;2022-11-15T10:46:39;12.40;;;8.02;;
39738;SDS011;25422;48.286;8.484;2022-11-15T10:49:22;17.83;;;12.85;;
39738;SDS011;25422;48.286;8.484;2022-11-15T10:51:53;27.23;;;21.58;;
39738;SDS011;25422;48.286;8.484;2022-11-15T10:56:53;15.23;;;10.10;;
39738;SDS011;25422;48.286;8.484;2022-11-15T10:59:24;17.00;;;10.13;;
39738;SDS011;25422;48.286;8.484;2022-11-15T11:01:53;13.27;;;7.72;;
39738;SDS011;25422;48.286;8.484;2022-11-15T11:04:19;12.32;;;7.72;;
39738;SDS011;25422;48.286;8.484;2022-11-15T11:06:46;16.52;;;7.00;;
39738;SDS011;25422;48.286;8.484;2022-11-15T11:09:21;10.13;;;6.90;;
39738;SDS011;25422;48.286;8.484;2022-11-15T11:11:52;10.00;;;6.55;;
39738;SDS011;25422;48.286;8.484;2022-11-15T11:14:25;9.25;;;6.78;;
39738;SDS011;25422;48.286;8.484;2022-11-15T11:16:54;8.60;;;6.45;;
39738;SDS011;25422;48.286;8.484;2022-11-15T11:22:17;10.30;;;6.47;;
39738;SDS011;25422;48.286;8.484;2022-11-15T11:24:54;9.70;;;6.40;;
39738;SDS011;25422;48.286;8.484;2022-11-15T11:30:08;8.07;;;5.75;;
39738;SDS011;25422;48.286;8.484;2022-11-15T11:35:34;8.65;;;5.68;;
39738;SDS011;25422;48.286;8.484;2022-11-15T11:38:17;11.30;;;6.50;;
39738;SDS011;25422;48.286;8.484;2022-11-15T11:49:09;4.40;;;2.88;;
39738;SDS011;25422;48.286;8.484;2022-11-15T11:51:42;4.68;;;2.50;;
39738;SDS011;25422;48.286;8.484;2022-11-15T11:54:13;3.05;;;2.20;;
39738;SDS011;25422;48.286;8.484;2022-11-15T11:56:44;5.82;;;2.63;;
39738;SDS011;25422;48.286;8.484;2022-11-15T11:59:32;6.22;;;4.00;;
39738;SDS011;25422;48.286;8.484;2022-11-15T12:02:10;6.88;;;4.47;;
39738;SDS011;25422;48.286;8.484;2022-11-15T12:04:47;6.93;;;4.50;;
39738;SDS011;25422;48.286;8.484;2022-11-15T12:07:30;7.20;;;5.30;;
39738;SDS011;25422;48.286;8.484;2022-11-15T12:15:36;8.30;;;5.57;;
39738;SDS011;25422;48.286;8.484;2022-11-15T12:18:08;8.07;;;6.50;;
39738;SDS011;25422;48.286;8.484;2022-11-15T12:20:36;9.73;;;6.65;;
39738;SDS011;25422;48.286;8.484;2022-11-15T12:23:12;10.07;;;6.72;;
39738;SDS011;25422;48.286;8.484;2022-11-15T12:28:36;9.88;;;5.85;;
39738;SDS011;25422;48.286;8.484;2022-11-15T12:31:10;7.68;;;6.00;;
39738;SDS011;25422;48.286;8.484;2022-11-15T12:33:42;9.32;;;6.32;;
39738;SDS011;25422;48.286;8.484;2022-11-15T12:36:10;8.88;;;6.55;;
39738;SDS011;25422;48.286;8.484;2022-11-15T12:39:00;9.55;;;5.97;;
39738;SDS011;25422;48.286;8.484;2022-11-15T12:41:37;8.65;;;6.78;;
39738;SDS011;25422;48.286;8.484;2022-11-15T12:44:09;7.97;;;5.82;;
39738;SDS011;25422;48.286;8.484;2022-11-15T13:02:21;9.38;;;6.47;;
39738;SDS011;25422;48.286;8.484;2022-11-15T13:04:49;14.02;;;8.88;;
39738;SDS011;25422;48.286;8.484;2022-11-15T13:12:55;13.32;;;11.02;;
39738;SDS011;25422;48.286;8.484;2022-11-15T13:15:36;12.15;;;10.80;;
39738;SDS011;25422;48.286;8.484;2022-11-15T13:20:54;12.68;;;6.80;;
39738;SDS011;25422;48.286;8.484;2022-11-15T13:23:20;12.00;;;8.73;;
39738;SDS011;25422;48.286;8.484;2022-11-15T13:31:18;16.95;;;13.02;;
39738;SDS011;25422;48.286;8.484;2022-11-15T13:33:48;9.00;;;6.20;;
39738;SDS011;25422;48.286;8.484;2022-11-15T13:39:25;8.43;;;7.38;;
39738;SDS011;25422;48.286;8.484;2022-11-15T13:41:57;20.48;;;9.68;;
39738;SDS011;25422;48.286;8.484;2022-11-15T13:44:25;20.33;;;9.40;;
39738;SDS011;25422;48.286;8.484;2022-11-15T13:47:02;10.60;;;7.60;;
39738;SDS011;25422;48.286;8.484;2022-11-15T13:49:32;10.75;;;7.68;;
39738;SDS011;25422;48.286;8.484;2022-11-15T13:52:00;9.55;;;7.63;;
39738;SDS011;25422;48.286;8.484;2022-11-15T13:54:29;10.95;;;7.70;;
39738;SDS011;25422;48.286;8.484;2022-11-15T13:57:08;13.30;;;8.55;;
39738;SDS011;25422;48.286;8.484;2022-11-15T13:59:54;14.18;;;7.72;;
39738;SDS011;25422;48.286;8.484;2022-11-15T14:02:26;13.45;;;7.72;;
39738;SDS011;25422;48.286;8.484;2022-11-15T14:04:59;13.73;;;8.05;;
39738;SDS011;25422;48.286;8.484;2022-11-15T14:07:29;8.63;;;7.07;;
39738;SDS011;25422;48.286;8.484;2022-11-15T14:09:55;12.70;;;7.32;;
39738;SDS011;25422;48.286;8.484;2022-11-15T14:15:00;11.20;;;7.68;;
39738;SDS011;25422;48.286;8.484;2022-11-15T14:17:43;9.70;;;7.57;;
39738;SDS011;25422;48.286;8.484;2022-11-15T14:20:19;10.20;;;7.30;;
39738;SDS011;25422;48.286;8.484;2022-11-15T14:22:52;11.57;;;7.78;;
39738;SDS011;25422;48.286;8.484;2022-11-15T14:25:23;15.00;;;8.60;;
39738;SDS011;25422;48.286;8.484;2022-11-15T14:28:13;12.55;;;8.98;;
39738;SDS011;25422;48.286;8.484;2022-11-15T14:30:48;13.48;;;9.38;;
39738;SDS011;25422;48.286;8.484;2022-11-15T14:36:12;18.85;;;12.60;;
39738;SDS011;25422;48.286;8.484;2022-11-15T14:38:39;13.70;;;9.23;;
39738;SDS011;25422;48.286;8.484;2022-11-15T14:41:18;10.98;;;8.25;;
39738;SDS011;25422;48.286;8.484;2022-11-15T14:43:45;11.13;;;8.38;;
39738;SDS011;25422;48.286;8.484;2022-11-15T14:46:11;9.95;;;6.82;;
39738;SDS011;25422;48.286;8.484;2022-11-15T14:48:36;8.73;;;6.00;;
39738;SDS011;25422;48.286;8.484;2022-11-15T14:51:02;10.30;;;6.35;;
39738;SDS011;25422;48.286;8.484;2022-11-15T14:53:28;7.45;;;5.80;;
39738;SDS011;25422;48.286;8.484;2022-11-15T14:55:53;7.88;;;5.20;;
39738;SDS011;25422;48.286;8.484;2022-11-15T14:58:18;8.18;;;5.43;;
39738;SDS011;25422;48.286;8.484;2022-11-15T15:00:44;5.88;;;5.07;;
39738;SDS011;25422;48.286;8.484;2022-11-15T15:03:09;8.25;;;6.53;;
39738;SDS011;25422;48.286;8.484;2022-11-15T15:05:36;9.98;;;6.35;;
39738;SDS011;25422;48.286;8.484;2022-11-15T15:08:04;7.82;;;5.30;;
39738;SDS011;25422;48.286;8.484;2022-11-15T15:10:31;7.65;;;5.57;;
39738;SDS011;25422;48.286;8.484;2022-11-15T15:12:58;9.63;;;5.65;;
39738;SDS011;25422;48.286;8.484;2022-11-15T15:15:25;6.85;;;5.07;;
39738;SDS011;25422;48.286;8.484;2022-11-15T15:17:54;6.78;;;5.07;;
39738;SDS011;25422;48.286;8.484;2022-11-15T15:20:20;7.45;;;4.82;;
39738;SDS011;25422;48.286;8.484;2022-11-15T15:22:45;9.48;;;6.97;;
39738;SDS011;25422;48.286;8.484;2022-11-15T15:25:20;9.95;;;6.35;;
39738;SDS011;25422;48.286;8.484;2022-11-15T15:27:48;7.65;;;5.18;;
39738;SDS011;25422;48.286;8.484;2022-11-15T15:30:14;6.50;;;5.30;;
39738;SDS011;25422;48.286;8.484;2022-11-15T15:32:40;5.97;;;5.05;;
39738;SDS011;25422;48.286;8.484;2022-11-15T15:35:06;7.97;;;5.05;;
39738;SDS011;25422;48.286;8.484;2022-11-15T15:37:35;8.82;;;6.00;;
39738;SDS011;25422;48.286;8.484;2022-11-15T15:40:01;7.82;;;5.88;;
39738;SDS011;25422;48.286;8.484;2022-11-15T15:42:27;12.07;;;6.30;;
39738;SDS011;25422;48.286;8.484;2022-11-15T15:44:52;9.55;;;7.15;;
39738;SDS011;25422;48.286;8.484;2022-11-15T15:47:21;10.48;;;7.10;;
39738;SDS011;25422;48.286;8.484;2022-11-15T15:49:48;14.63;;;7.85;;
39738;SDS011;25422;48.286;8.484;2022-11-15T15:52:15;11.40;;;7.47;;
39738;SDS011;25422;48.286;8.484;2022-11-15T15:54:44;14.75;;;9.57;;
39738;SDS011;25422;48.286;8.484;2022-11-15T15:57:11;15.15;;;8.82;;
39738;SDS011;25422;48.286;8.484;2022-11-15T15:59:37;12.82;;;8.57;;
39738;SDS011;25422;48.286;8.484;2022-11-15T16:02:03;11.10;;;8.38;;
39738;SDS011;25422;48.286;8.484;2022-11-15T16:04:29;10.05;;;7.90;;
39738;SDS011;25422;48.286;8.484;2022-11-15T16:07:00;10.82;;;7.93;;
39738;SDS011;25422;48.286;8.484;2022-11-15T16:09:27;10.80;;;7.35;;
39738;SDS011;25422;48.286;8.484;2022-11-15T16:12:11;11.00;;;8.20;;
39738;SDS011;25422;48.286;8.484;2022-11-15T16:14:37;10.18;;;8.50;;
39738;SDS011;25422;48.286;8.484;2022-11-15T16:17:02;12.73;;;8.85;;
39738;SDS011;25422;48.286;8.484;2022-11-15T16:19:28;13.32;;;9.75;;
39738;SDS011;25422;48.286;8.484;2022-11-15T16:21:54;11.80;;;8.23;;
39738;SDS011;25422;48.286;8.484;2022-11-15T16:24:19;11.45;;;7.93;;
39738;SDS011;25422;48.286;8.484;2022-11-15T16:26:46;11.02;;;8.82;;
39738;SDS011;25422;48.286;8.484;2022-11-15T16:29:12;13.93;;;8.20;;
39738;SDS011;25422;48.286;8.484;2022-11-15T16:31:38;10.95;;;6.95;;
39738;SDS011;25422;48.286;8.484;2022-11-15T16:34:03;12.38;;;8.05;;
39738;SDS011;25422;48.286;8.484;2022-11-15T16:36:30;12.77;;;8.82;;
39738;SDS011;25422;48.286;8.484;2022-11-15T16:38:57;13.90;;;10.00;;
39738;SDS011;25422;48.286;8.484;2022-11-15T16:41:24;12.82;;;9.32;;
39738;SDS011;25422;48.286;8.484;2022-11-15T16:43:50;12.80;;;9.70;;
39738;SDS011;25422;48.286;8.484;2022-11-15T16:46:25;12.70;;;9.48;;
39738;SDS011;25422;48.286;8.484;2022-11-15T16:48:52;14.63;;;10.50;;
39738;SDS011;25422;48.286;8.484;2022-11-15T16:51:18;14.80;;;10.80;;
39738;SDS011;25422;48.286;8.484;2022-11-15T16:53:44;13.25;;;9.38;;
39738;SDS011;25422;48.286;8.484;2022-11-15T16:56:17;13.77;;;9.82;;
39738;SDS011;25422;48.286;8.484;2022-11-15T16:58:43;19.13;;;9.90;;
39738;SDS011;25422;48.286;8.484;2022-11-15T17:01:14;13.95;;;9.73;;
39738;SDS011;25422;48.286;8.484;2022-11-15T17:03:42;14.77;;;10.30;;
39738;SDS011;25422;48.286;8.484;2022-11-15T17:06:08;12.15;;;9.43;;
39738;SDS011;25422;48.286;8.484;2022-11-15T17:08:35;13.35;;;9.43;;
39738;SDS011;25422;48.286;8.484;2022-11-15T17:11:03;13.00;;;10.02;;
39738;SDS011;25422;48.286;8.484;2022-11-15T17:13:30;14.73;;;10.27;;
39738;SDS011;25422;48.286;8.484;2022-11-15T17:16:07;13.80;;;9.52;;
39738;SDS011;25422;48.286;8.484;2022-11-15T17:18:41;13.52;;;9.75;;
39738;SDS011;25422;48.286;8.484;2022-11-15T17:21:13;13.45;;;9.70;;
39738;SDS011;25422;48.286;8.484;2022-11-15T17:23:39;14.30;;;9.82;;
39738;SDS011;25422;48.286;8.484;2022-11-15T17:26:05;14.13;;;9.98;;
39738;SDS011;25422;48.286;8.484;2022-11-15T17:28:32;12.63;;;9.27;;
39738;SDS011;25422;48.286;8.484;2022-11-15T17:30:58;14.45;;;9.70;;
39738;SDS011;25422;48.286;8.484;2022-11-15T17:33:24;17.63;;;10.45;;
39738;SDS011;25422;48.286;8.484;2022-11-15T17:35:56;14.25;;;10.18;;
39738;SDS011;25422;48.286;8.484;2022-11-15T17:38:23;15.98;;;11.02;;
39738;SDS011;25422;48.286;8.484;2022-11-15T17:41:05;14.43;;;11.38;;
39738;SDS011;25422;48.286;8.484;2022-11-15T17:43:35;13.05;;;10.07;;